sensor_id;sensor_type;location;lat;lon;timestamp;temperature;humidity
49901;DHT22;35789;48.414;12.768;2022-11-15T00:00:00;2.7;99.9
49901;DHT22;35789;48.414;12.768;2022-11-15T00:05:00;2.7;99.9
49901;DHT22;35789;48.414;12.768;2022-11-15T00:10:00;2.7;99.9
49901;DHT22;35789;48.414;12.768;2022-11-15T00:15:00;2.7;99.9
49901;DHT22;35789;48.414;12.768;2022-11-15T00:20:00;2.6;99.9
49901;DHT22;35789;48.414;12.768;2022-11-15T00:25:00;2.6;99.9
49901;DHT22;35789;48.414;12.768;2022-11-15T00:30:00;2.5;99.9
49901;DHT22;35789;48.414;12.768;2022-11-15T00:35:00;2.5;99.9
49901;DHT22;35789;48.414;12.768;2022-11-15T00:40:00;2.4;99.9
49901;DHT22;35789;48.414;12.768;2022-11-15T00:45:00;2.4;99.9
49901;DHT22;35789;48.414;12.768;2022-11-15T00:50:00;2.4;99.9
49901;DHT22;35789;48.414;12.768;2022-11-15T00:55:00;2.4;99.9
49901;DHT22;35789;48.414;12.768;2022-11-15T01:00:00;2.4;99.9
49901;DHT22;35789;48.414;12.768;2022-11-15T01:05:00;2.4;99.9
49901;DHT22;35789;48.414;12.768;2022-11-15T01:10:00;2.3;99.9
49901;DHT22;35789;48.414;12.768;2022-11-15T01:15:00;2.3;99.9
49901;DHT22;35789;48.414;12.768;2022-11-15T01:20:00;2.3;99.9
49901;DHT22;35789;48.414;12.768;2022-11-15T01:25:00;2.1;99.9
49901;DHT22;35789;48.414;12.768;2022-11-15T01:30:00;2.2;99.9
49901;DHT22;35789;48.414;12.768;2022-11-15T01:35:00;2.2;99.9
49901;DHT22;35789;48.414;12.768;2022-11-15T01:40:00;2.1;99.9
49901;DHT22;35789;48.414;12.768;2022-11-15T01:45:00;2.1;99.9
49901;DHT22;35789;48.414;12.768;2022-11-15T01:50:00;2.1;99.9
49901;DHT22;35789;48.414;12.768;2022-11-15T01:55:02;2.1;99.9
49901;DHT22;35789;48.414;12.768;2022-11-15T02:00:00;2.0;99.9
49901;DHT22;35789;48.414;12.768;2022-11-15T02:05:00;2.0;99.9
49901;DHT22;35789;48.414;12.768;2022-11-15T02:10:02;1.9;99.9
49901;DHT22;35789;48.414;12.768;2022-11-15T02:15:00;2.0;99.9
49901;DHT22;35789;48.414;12.768;2022-11-15T02:25:03;1.9;99.9
49901;DHT22;35789;48.414;12.768;2022-11-15T02:35:01;1.9;99.9
49901;DHT22;35789;48.414;12.768;2022-11-15T02:40:01;2.0;99.9
49901;DHT22;35789;48.414;12.768;2022-11-15T02:45:01;1.9;99.9
49901;DHT22;35789;48.414;12.768;2022-11-15T02:50:00;1.8;99.9
49901;DHT22;35789;48.414;12.768;2022-11-15T02:55:00;1.9;99.9
49901;DHT22;35789;48.414;12.768;2022-11-15T03:00:03;1.8;99.9
49901;DHT22;35789;48.414;12.768;2022-11-15T03:05:01;1.7;99.9
49901;DHT22;35789;48.414;12.768;2022-11-15T03:10:02;1.6;99.9
49901;DHT22;35789;48.414;12.768;2022-11-15T03:15:00;1.7;99.9
49901;DHT22;35789;48.414;12.768;2022-11-15T03:20:01;1.6;99.9
49901;DHT22;35789;48.414;12.768;2022-11-15T03:25:02;1.6;99.9
49901;DHT22;35789;48.414;12.768;2022-11-15T03:30:00;1.6;99.9
49901;DHT22;35789;48.414;12.768;2022-11-15T03:35:00;1.5;99.9
49901;DHT22;35789;48.414;12.768;2022-11-15T03:40:00;1.5;99.9
49901;DHT22;35789;48.414;12.768;2022-11-15T03:45:01;1.5;99.9
49901;DHT22;35789;48.414;12.768;2022-11-15T03:50:02;1.5;99.9
49901;DHT22;35789;48.414;12.768;2022-11-15T03:55:00;unavailable;unavailable
49901;DHT22;35789;48.414;12.768;2022-11-15T04:00:00;1.5;99.9
49901;DHT22;35789;48.414;12.768;2022-11-15T04:05:00;1.4;99.9
49901;DHT22;35789;48.414;12.768;2022-11-15T04:10:00;1.4;99.9
49901;DHT22;35789;48.414;12.768;2022-11-15T04:15:00;1.5;99.9
49901;DHT22;35789;48.414;12.768;2022-11-15T04:20:00;1.4;99.9
49901;DHT22;35789;48.414;12.768;2022-11-15T04:25:00;1.4;99.9
49901;DHT22;35789;48.414;12.768;2022-11-15T04:30:00;1.3;99.9
49901;DHT22;35789;48.414;12.768;2022-11-15T04:35:00;1.3;99.9
49901;DHT22;35789;48.414;12.768;2022-11-15T04:40:00;1.3;99.9
49901;DHT22;35789;48.414;12.768;2022-11-15T04:45:00;unavailable;unavailable
49901;DHT22;35789;48.414;12.768;2022-11-15T04:50:00;1.2;99.9
49901;DHT22;35789;48.414;12.768;2022-11-15T04:55:00;1.3;99.9
49901;DHT22;35789;48.414;12.768;2022-11-15T05:00:00;1.3;99.9
49901;DHT22;35789;48.414;12.768;2022-11-15T05:05:00;1.3;99.9
49901;DHT22;35789;48.414;12.768;2022-11-15T05:10:00;1.2;99.9
49901;DHT22;35789;48.414;12.768;2022-11-15T05:15:00;1.2;99.9
49901;DHT22;35789;48.414;12.768;2022-11-15T05:20:00;1.2;99.9
49901;DHT22;35789;48.414;12.768;2022-11-15T05:25:00;1.2;99.9
49901;DHT22;35789;48.414;12.768;2022-11-15T05:30:00;1.2;99.9
49901;DHT22;35789;48.414;12.768;2022-11-15T05:35:00;1.2;99.9
49901;DHT22;35789;48.414;12.768;2022-11-15T05:40:00;1.2;99.9
49901;DHT22;35789;48.414;12.768;2022-11-15T05:45:00;1.2;99.9
49901;DHT22;35789;48.414;12.768;2022-11-15T05:50:00;1.2;99.9
49901;DHT22;35789;48.414;12.768;2022-11-15T05:55:00;1.3;99.9
49901;DHT22;35789;48.414;12.768;2022-11-15T06:00:00;1.3;99.9
49901;DHT22;35789;48.414;12.768;2022-11-15T06:05:00;1.4;99.9
49901;DHT22;35789;48.414;12.768;2022-11-15T06:10:00;1.4;99.9
49901;DHT22;35789;48.414;12.768;2022-11-15T06:15:00;1.3;99.9
49901;DHT22;35789;48.414;12.768;2022-11-15T06:20:00;1.3;99.9
49901;DHT22;35789;48.414;12.768;2022-11-15T06:25:00;1.4;99.9
49901;DHT22;35789;48.414;12.768;2022-11-15T06:30:00;1.4;99.9
49901;DHT22;35789;48.414;12.768;2022-11-15T06:35:00;1.5;99.9
49901;DHT22;35789;48.414;12.768;2022-11-15T06:40:00;1.6;99.9
49901;DHT22;35789;48.414;12.768;2022-11-15T06:45:00;1.4;99.9
49901;DHT22;35789;48.414;12.768;2022-11-15T06:50:00;1.5;99.9
49901;DHT22;35789;48.414;12.768;2022-11-15T06:55:00;1.6;99.9
49901;DHT22;35789;48.414;12.768;2022-11-15T07:00:00;1.6;99.9
49901;DHT22;35789;48.414;12.768;2022-11-15T07:05:00;1.6;99.9
49901;DHT22;35789;48.414;12.768;2022-11-15T07:10:00;1.6;99.9
49901;DHT22;35789;48.414;12.768;2022-11-15T07:15:00;1.4;99.9
49901;DHT22;35789;48.414;12.768;2022-11-15T07:20:00;1.5;99.9
49901;DHT22;35789;48.414;12.768;2022-11-15T07:25:00;1.6;99.9
49901;DHT22;35789;48.414;12.768;2022-11-15T07:30:00;1.6;99.9
49901;DHT22;35789;48.414;12.768;2022-11-15T07:35:00;1.6;99.9
49901;DHT22;35789;48.414;12.768;2022-11-15T07:40:00;1.7;99.9
49901;DHT22;35789;48.414;12.768;2022-11-15T07:45:00;2.0;99.9
49901;DHT22;35789;48.414;12.768;2022-11-15T07:50:00;2.0;99.9
49901;DHT22;35789;48.414;12.768;2022-11-15T07:55:00;2.1;99.9
49901;DHT22;35789;48.414;12.768;2022-11-15T08:00:00;2.1;99.9
49901;DHT22;35789;48.414;12.768;2022-11-15T08:05:00;2.2;99.9
49901;DHT22;35789;48.414;12.768;2022-11-15T08:10:00;2.3;99.9
49901;DHT22;35789;48.414;12.768;2022-11-15T08:15:00;2.5;99.9
49901;DHT22;35789;48.414;12.768;2022-11-15T08:20:00;2.6;99.9
49901;DHT22;35789;48.414;12.768;2022-11-15T08:25:00;2.7;99.9
49901;DHT22;35789;48.414;12.768;2022-11-15T08:30:00;2.9;99.9
49901;DHT22;35789;48.414;12.768;2022-11-15T08:35:00;3.1;99.9
49901;DHT22;35789;48.414;12.768;2022-11-15T08:40:00;3.3;99.9
49901;DHT22;35789;48.414;12.768;2022-11-15T08:45:00;3.5;99.9
49901;DHT22;35789;48.414;12.768;2022-11-15T08:50:00;3.7;99.9
49901;DHT22;35789;48.414;12.768;2022-11-15T08:55:00;3.9;99.9
49901;DHT22;35789;48.414;12.768;2022-11-15T09:00:00;4.0;99.9
49901;DHT22;35789;48.414;12.768;2022-11-15T09:05:00;4.2;99.9
49901;DHT22;35789;48.414;12.768;2022-11-15T09:10:00;4.5;99.9
49901;DHT22;35789;48.414;12.768;2022-11-15T09:15:00;4.5;99.9
49901;DHT22;35789;48.414;12.768;2022-11-15T09:20:00;4.9;99.9
49901;DHT22;35789;48.414;12.768;2022-11-15T09:25:00;4.9;99.9
49901;DHT22;35789;48.414;12.768;2022-11-15T09:30:00;5.1;99.9
49901;DHT22;35789;48.414;12.768;2022-11-15T09:35:00;5.2;99.9
49901;DHT22;35789;48.414;12.768;2022-11-15T09:40:00;5.3;99.9
49901;DHT22;35789;48.414;12.768;2022-11-15T09:45:04;5.6;99.9
49901;DHT22;35789;48.414;12.768;2022-11-15T09:50:00;5.8;99.9
49901;DHT22;35789;48.414;12.768;2022-11-15T09:55:00;5.8;99.9
49901;DHT22;35789;48.414;12.768;2022-11-15T10:00:03;6.0;99.9
49901;DHT22;35789;48.414;12.768;2022-11-15T10:05:00;6.1;99.9
49901;DHT22;35789;48.414;12.768;2022-11-15T10:10:00;6.3;99.9
49901;DHT22;35789;48.414;12.768;2022-11-15T10:15:00;6.5;99.9
49901;DHT22;35789;48.414;12.768;2022-11-15T10:20:02;6.7;99.9
49901;DHT22;35789;48.414;12.768;2022-11-15T10:25:04;7.1;99.9
49901;DHT22;35789;48.414;12.768;2022-11-15T10:30:00;7.3;99.9
49901;DHT22;35789;48.414;12.768;2022-11-15T10:35:00;7.5;99.9
49901;DHT22;35789;48.414;12.768;2022-11-15T10:40:03;7.7;99.9
49901;DHT22;35789;48.414;12.768;2022-11-15T10:45:00;7.8;99.9
49901;DHT22;35789;48.414;12.768;2022-11-15T10:50:01;7.9;99.9
49901;DHT22;35789;48.414;12.768;2022-11-15T10:55:01;7.9;99.9
49901;DHT22;35789;48.414;12.768;2022-11-15T11:00:00;8.1;99.9
49901;DHT22;35789;48.414;12.768;2022-11-15T11:05:00;8.1;99.9
49901;DHT22;35789;48.414;12.768;2022-11-15T11:10:01;8.3;99.9
49901;DHT22;35789;48.414;12.768;2022-11-15T11:15:00;8.3;99.9
49901;DHT22;35789;48.414;12.768;2022-11-15T11:20:02;8.6;99.9
49901;DHT22;35789;48.414;12.768;2022-11-15T11:25:07;8.5;99.9
49901;DHT22;35789;48.414;12.768;2022-11-15T11:30:03;8.5;99.9
49901;DHT22;35789;48.414;12.768;2022-11-15T11:35:02;8.7;99.9
49901;DHT22;35789;48.414;12.768;2022-11-15T11:40:07;8.8;99.9
49901;DHT22;35789;48.414;12.768;2022-11-15T11:45:01;9.0;99.9
49901;DHT22;35789;48.414;12.768;2022-11-15T11:50:00;9.3;99.9
49901;DHT22;35789;48.414;12.768;2022-11-15T11:55:02;9.4;99.9
49901;DHT22;35789;48.414;12.768;2022-11-15T12:00:03;9.2;99.9
49901;DHT22;35789;48.414;12.768;2022-11-15T12:05:03;9.3;99.9
49901;DHT22;35789;48.414;12.768;2022-11-15T12:10:01;9.8;99.9
49901;DHT22;35789;48.414;12.768;2022-11-15T12:15:02;9.9;99.9
49901;DHT22;35789;48.414;12.768;2022-11-15T12:20:02;10.0;99.9
49901;DHT22;35789;48.414;12.768;2022-11-15T12:25:01;9.8;99.9
49901;DHT22;35789;48.414;12.768;2022-11-15T12:30:00;9.9;99.9
49901;DHT22;35789;48.414;12.768;2022-11-15T12:35:00;9.9;99.9
49901;DHT22;35789;48.414;12.768;2022-11-15T12:40:05;9.9;99.9
49901;DHT22;35789;48.414;12.768;2022-11-15T12:45:00;9.6;99.9
49901;DHT22;35789;48.414;12.768;2022-11-15T12:50:00;9.7;99.9
49901;DHT22;35789;48.414;12.768;2022-11-15T12:55:00;9.8;99.9
49901;DHT22;35789;48.414;12.768;2022-11-15T13:00:00;9.8;99.9
49901;DHT22;35789;48.414;12.768;2022-11-15T13:10:00;10.1;99.9
49901;DHT22;35789;48.414;12.768;2022-11-15T13:15:00;9.7;99.9
49901;DHT22;35789;48.414;12.768;2022-11-15T13:25:00;9.7;99.9
49901;DHT22;35789;48.414;12.768;2022-11-15T13:30:00;9.9;99.9
49901;DHT22;35789;48.414;12.768;2022-11-15T13:35:00;10.0;99.9
49901;DHT22;35789;48.414;12.768;2022-11-15T13:40:10;9.9;99.9
49901;DHT22;35789;48.414;12.768;2022-11-15T13:45:00;9.8;99.9
49901;DHT22;35789;48.414;12.768;2022-11-15T13:50:00;9.6;99.9
49901;DHT22;35789;48.414;12.768;2022-11-15T13:55:01;9.5;99.9
49901;DHT22;35789;48.414;12.768;2022-11-15T14:00:00;9.6;99.9
49901;DHT22;35789;48.414;12.768;2022-11-15T14:05:01;9.4;99.9
49901;DHT22;35789;48.414;12.768;2022-11-15T14:15:01;9.0;99.9
49901;DHT22;35789;48.414;12.768;2022-11-15T14:20:00;9.2;99.9
49901;DHT22;35789;48.414;12.768;2022-11-15T14:30:00;8.8;99.9
49901;DHT22;35789;48.414;12.768;2022-11-15T14:35:00;8.9;99.9
49901;DHT22;35789;48.414;12.768;2022-11-15T14:40:00;9.0;99.9
49901;DHT22;35789;48.414;12.768;2022-11-15T14:45:00;8.9;99.9
49901;DHT22;35789;48.414;12.768;2022-11-15T14:50:00;9.0;99.9
49901;DHT22;35789;48.414;12.768;2022-11-15T14:55:00;8.9;99.9
49901;DHT22;35789;48.414;12.768;2022-11-15T15:00:00;unavailable;unavailable
49901;DHT22;35789;48.414;12.768;2022-11-15T15:05:00;8.4;99.9
49901;DHT22;35789;48.414;12.768;2022-11-15T15:10:00;8.2;99.9
49901;DHT22;35789;48.414;12.768;2022-11-15T15:15:00;8.1;99.9
49901;DHT22;35789;48.414;12.768;2022-11-15T15:20:00;7.9;99.9
49901;DHT22;35789;48.414;12.768;2022-11-15T15:25:00;7.8;99.9
49901;DHT22;35789;48.414;12.768;2022-11-15T15:30:00;7.7;99.9
49901;DHT22;35789;48.414;12.768;2022-11-15T15:35:00;7.6;99.9
49901;DHT22;35789;48.414;12.768;2022-11-15T15:40:00;7.5;99.9
49901;DHT22;35789;48.414;12.768;2022-11-15T15:45:00;7.4;99.9
49901;DHT22;35789;48.414;12.768;2022-11-15T15:50:00;7.3;99.9
49901;DHT22;35789;48.414;12.768;2022-11-15T15:55:00;7.3;99.9
49901;DHT22;35789;48.414;12.768;2022-11-15T16:00:00;7.2;99.9
49901;DHT22;35789;48.414;12.768;2022-11-15T16:05:00;7.2;99.9
49901;DHT22;35789;48.414;12.768;2022-11-15T16:10:00;7.2;99.9
49901;DHT22;35789;48.414;12.768;2022-11-15T16:15:00;7.0;99.9
49901;DHT22;35789;48.414;12.768;2022-11-15T16:20:00;6.9;99.9
49901;DHT22;35789;48.414;12.768;2022-11-15T16:25:00;6.7;99.9
49901;DHT22;35789;48.414;12.768;2022-11-15T16:30:00;6.6;99.9
49901;DHT22;35789;48.414;12.768;2022-11-15T16:35:00;6.5;99.9
49901;DHT22;35789;48.414;12.768;2022-11-15T16:40:00;6.4;99.9
49901;DHT22;35789;48.414;12.768;2022-11-15T16:45:00;6.2;99.9
49901;DHT22;35789;48.414;12.768;2022-11-15T16:50:00;6.2;99.9
49901;DHT22;35789;48.414;12.768;2022-11-15T16:55:00;6.1;99.9
49901;DHT22;35789;48.414;12.768;2022-11-15T17:00:00;5.9;99.9
49901;DHT22;35789;48.414;12.768;2022-11-15T17:05:00;5.8;99.9
49901;DHT22;35789;48.414;12.768;2022-11-15T17:10:00;5.8;99.9
49901;DHT22;35789;48.414;12.768;2022-11-15T17:15:00;5.7;99.9
49901;DHT22;35789;48.414;12.768;2022-11-15T17:20:00;5.7;99.9
49901;DHT22;35789;48.414;12.768;2022-11-15T17:25:00;5.6;99.9
49901;DHT22;35789;48.414;12.768;2022-11-15T17:30:00;5.5;99.9
49901;DHT22;35789;48.414;12.768;2022-11-15T17:35:00;5.5;99.9
49901;DHT22;35789;48.414;12.768;2022-11-15T17:40:00;5.4;99.9
49901;DHT22;35789;48.414;12.768;2022-11-15T17:45:00;5.4;99.9
49901;DHT22;35789;48.414;12.768;2022-11-15T17:50:00;5.3;99.9
49901;DHT22;35789;48.414;12.768;2022-11-15T17:55:00;5.2;99.9
49901;DHT22;35789;48.414;12.768;2022-11-15T18:00:00;5.2;99.9
49901;DHT22;35789;48.414;12.768;2022-11-15T18:05:00;5.2;99.9
49901;DHT22;35789;48.414;12.768;2022-11-15T18:10:00;5.2;99.9
49901;DHT22;35789;48.414;12.768;2022-11-15T18:15:00;5.2;99.9
49901;DHT22;35789;48.414;12.768;2022-11-15T18:20:00;5.2;99.9
49901;DHT22;35789;48.414;12.768;2022-11-15T18:25:00;5.2;99.9
49901;DHT22;35789;48.414;12.768;2022-11-15T18:30:00;5.2;99.9
49901;DHT22;35789;48.414;12.768;2022-11-15T18:35:00;5.2;99.9
49901;DHT22;35789;48.414;12.768;2022-11-15T18:40:00;5.2;99.9
49901;DHT22;35789;48.414;12.768;2022-11-15T18:45:00;5.1;99.9
49901;DHT22;35789;48.414;12.768;2022-11-15T18:50:00;5.0;99.9
49901;DHT22;35789;48.414;12.768;2022-11-15T18:55:00;5.0;99.9
49901;DHT22;35789;48.414;12.768;2022-11-15T19:00:00;4.9;99.9
49901;DHT22;35789;48.414;12.768;2022-11-15T19:05:00;4.9;99.9
49901;DHT22;35789;48.414;12.768;2022-11-15T19:10:00;4.9;99.9
49901;DHT22;35789;48.414;12.768;2022-11-15T19:15:00;5.0;99.9
49901;DHT22;35789;48.414;12.768;2022-11-15T19:20:00;5.0;99.9
49901;DHT22;35789;48.414;12.768;2022-11-15T19:25:00;5.1;99.9
49901;DHT22;35789;48.414;12.768;2022-11-15T19:30:00;5.2;99.9
49901;DHT22;35789;48.414;12.768;2022-11-15T19:35:00;5.1;99.9
49901;DHT22;35789;48.414;12.768;2022-11-15T19:40:00;5.2;99.9
49901;DHT22;35789;48.414;12.768;2022-11-15T19:45:00;5.1;99.9
49901;DHT22;35789;48.414;12.768;2022-11-15T19:50:00;5.0;99.9
49901;DHT22;35789;48.414;12.768;2022-11-15T19:55:00;5.0;99.9
49901;DHT22;35789;48.414;12.768;2022-11-15T20:00:00;5.1;99.9
49901;DHT22;35789;48.414;12.768;2022-11-15T20:05:00;5.1;99.9
49901;DHT22;35789;48.414;12.768;2022-11-15T20:10:00;5.0;99.9
49901;DHT22;35789;48.414;12.768;2022-11-15T20:15:00;5.1;99.9
49901;DHT22;35789;48.414;12.768;2022-11-15T20:20:00;5.2;99.9
49901;DHT22;35789;48.414;12.768;2022-11-15T20:25:00;5.2;99.9
49901;DHT22;35789;48.414;12.768;2022-11-15T20:30:00;5.2;99.9
49901;DHT22;35789;48.414;12.768;2022-11-15T20:35:00;5.3;99.9
49901;DHT22;35789;48.414;12.768;2022-11-15T20:40:00;5.2;99.9
49901;DHT22;35789;48.414;12.768;2022-11-15T20:45:00;5.2;99.9
49901;DHT22;35789;48.414;12.768;2022-11-15T20:50:00;5.1;99.9
49901;DHT22;35789;48.414;12.768;2022-11-15T20:55:00;5.2;99.9
49901;DHT22;35789;48.414;12.768;2022-11-15T21:00:00;5.1;99.9
49901;DHT22;35789;48.414;12.768;2022-11-15T21:05:00;5.2;99.9
49901;DHT22;35789;48.414;12.768;2022-11-15T21:10:00;5.2;99.9
49901;DHT22;35789;48.414;12.768;2022-11-15T21:15:00;5.2;99.9
49901;DHT22;35789;48.414;12.768;2022-11-15T21:20:00;5.3;99.9
49901;DHT22;35789;48.414;12.768;2022-11-15T21:25:00;5.1;99.9
49901;DHT22;35789;48.414;12.768;2022-11-15T21:30:00;5.2;99.9
49901;DHT22;35789;48.414;12.768;2022-11-15T21:35:00;5.2;99.9
49901;DHT22;35789;48.414;12.768;2022-11-15T21:40:00;5.3;99.9
49901;DHT22;35789;48.414;12.768;2022-11-15T21:45:00;5.3;99.9
49901;DHT22;35789;48.414;12.768;2022-11-15T21:50:00;5.3;99.9
49901;DHT22;35789;48.414;12.768;2022-11-15T21:55:00;5.3;99.9
49901;DHT22;35789;48.414;12.768;2022-11-15T22:00:00;5.3;99.9
49901;DHT22;35789;48.414;12.768;2022-11-15T22:05:00;5.3;99.9
49901;DHT22;35789;48.414;12.768;2022-11-15T22:10:00;5.2;99.9
49901;DHT22;35789;48.414;12.768;2022-11-15T22:15:00;5.3;99.9
49901;DHT22;35789;48.414;12.768;2022-11-15T22:20:00;5.3;99.9
49901;DHT22;35789;48.414;12.768;2022-11-15T22:25:00;5.3;99.9
49901;DHT22;35789;48.414;12.768;2022-11-15T22:30:00;5.3;99.9
49901;DHT22;35789;48.414;12.768;2022-11-15T22:35:00;5.3;99.9
49901;DHT22;35789;48.414;12.768;2022-11-15T22:40:00;5.3;99.9
49901;DHT22;35789;48.414;12.768;2022-11-15T22:45:00;5.3;99.9
49901;DHT22;35789;48.414;12.768;2022-11-15T22:50:00;5.4;99.9
49901;DHT22;35789;48.414;12.768;2022-11-15T22:55:00;5.2;99.9
49901;DHT22;35789;48.414;12.768;2022-11-15T23:00:00;5.3;99.9
49901;DHT22;35789;48.414;12.768;2022-11-15T23:05:00;5.2;99.9
49901;DHT22;35789;48.414;12.768;2022-11-15T23:10:00;5.3;99.9
49901;DHT22;35789;48.414;12.768;2022-11-15T23:15:00;5.3;99.9
49901;DHT22;35789;48.414;12.768;2022-11-15T23:20:00;5.2;99.9
49901;DHT22;35789;48.414;12.768;2022-11-15T23:25:00;5.2;99.9
49901;DHT22;35789;48.414;12.768;2022-11-15T23:30:00;5.1;99.9
49901;DHT22;35789;48.414;12.768;2022-11-15T23:35:00;5.1;99.9
49901;DHT22;35789;48.414;12.768;2022-11-15T23:40:00;5.0;unavailable
49901;DHT22;35789;48.414;12.768;2022-11-15T23:45:00;5.1;99.9
49901;DHT22;35789;48.414;12.768;2022-11-15T23:50:00;5.1;99.9
49901;DHT22;35789;48.414;12.768;2022-11-15T23:55:00;5.1;99.9
